Time;durP1;ratioP1;P1;durP2;ratioP2;P2;SDS_P1;SDS_P2;PMS_P1;PMS_P2;Temp;Humidity;BMP_temperature;BMP_pressure;BME280_temperature;BME280_humidity;BME280_pressure;Samples;Min_cycle;Max_cycle;Signal;HPM_P1;HPM_P2
2023/01/12 04:00:36;;;;;;;4.00;1.67;;;7.30;83.40;;;;;;6144434;23;20397;31
2023/01/12 04:03:08;;;;;;;4.13;1.50;;;7.50;83.30;;;;;;4976751;28;20512;-66
2023/01/12 04:05:35;;;;;;;3.77;1.70;;;7.60;83.20;;;;;;4977662;28;20426;-67
2023/01/12 04:08:02;;;;;;;3.10;1.57;;;7.60;82.70;;;;;;4978006;28;20449;-67
2023/01/12 04:10:29;;;;;;;2.80;1.40;;;7.50;82.80;;;;;;4977896;28;20450;-66
2023/01/12 04:12:54;;;;;;;4.07;1.67;;;7.50;83.10;;;;;;4977815;28;20457;-67
2023/01/12 04:15:21;;;;;;;3.97;1.60;;;7.60;83.20;;;;;;4978453;28;20970;-67
2023/01/12 04:17:48;;;;;;;5.80;2.23;;;7.60;83.10;;;;;;4977759;28;20203;-67
2023/01/12 04:20:16;;;;;;;4.13;1.60;;;7.70;82.90;;;;;;4977675;28;20450;-66
2023/01/12 04:22:42;;;;;;;3.13;1.50;;;7.70;82.80;;;;;;4977593;28;20875;-67
2023/01/12 04:25:10;;;;;;;5.83;1.93;;;7.70;82.90;;;;;;4977621;28;20446;-67
2023/01/12 04:27:36;;;;;;;3.10;1.47;;;7.70;83.10;;;;;;4977680;28;20481;-68
2023/01/12 04:30:04;;;;;;;4.73;2.13;;;7.70;82.90;;;;;;4977541;28;20450;-67
2023/01/12 04:32:30;;;;;;;2.93;1.57;;;7.80;83.00;;;;;;4977396;28;20470;-67
2023/01/12 04:34:57;;;;;;;2.73;1.70;;;7.70;82.80;;;;;;4977439;28;20450;-68
2023/01/12 04:37:25;;;;;;;4.00;1.87;;;7.80;82.80;;;;;;4977411;28;20851;-68
2023/01/12 04:39:52;;;;;;;3.60;1.93;;;7.60;83.20;;;;;;4977373;28;20447;-68
2023/01/12 04:45:02;;;;;;;4.77;2.07;;;7.70;83.10;;;;;;4977380;28;20903;-68
2023/01/12 04:47:29;;;;;;;4.30;1.60;;;7.60;83.40;;;;;;4976735;28;20486;-68
2023/01/12 04:49:56;;;;;;;6.30;1.83;;;7.60;83.30;;;;;;4976963;28;20501;-67
2023/01/12 04:52:22;;;;;;;6.10;3.33;;;7.60;83.10;;;;;;4977045;28;20466;-67
2023/01/12 04:54:50;;;;;;;3.20;1.40;;;7.60;83.10;;;;;;4977079;28;20501;-68
2023/01/12 04:57:17;;;;;;;2.53;1.50;;;7.60;83.00;;;;;;4977057;28;20442;-68
2023/01/12 04:59:44;;;;;;;2.40;1.87;;;7.60;83.50;;;;;;4976996;28;20504;-67
2023/01/12 05:02:10;;;;;;;3.37;1.63;;;7.60;83.70;;;;;;4976569;28;20482;-67
2023/01/12 05:04:37;;;;;;;3.50;1.67;;;7.60;83.80;;;;;;4976912;28;20446;-67
2023/01/12 05:07:04;;;;;;;4.27;2.00;;;7.70;83.60;;;;;;4976796;28;20478;-67
2023/01/12 05:12:16;;;;;;;6.63;1.53;;;7.70;83.00;;;;;;4976539;28;21019;-68
2023/01/12 05:14:42;;;;;;;2.37;1.10;;;7.70;82.80;;;;;;4976398;28;20450;-68
2023/01/12 05:17:09;;;;;;;2.87;1.57;;;7.70;82.90;;;;;;4976324;28;20998;-68
2023/01/12 05:19:36;;;;;;;3.83;1.80;;;7.70;83.10;;;;;;4976600;28;20454;-67
2023/01/12 05:22:02;;;;;;;5.93;2.20;;;7.80;83.30;;;;;;4976494;28;20466;-67
2023/01/12 05:24:29;;;;;;;4.00;2.13;;;7.80;83.40;;;;;;4976488;28;20473;-67
2023/01/12 05:26:56;;;;;;;2.97;1.87;;;7.90;82.40;;;;;;4976434;28;20486;-67
2023/01/12 05:29:24;;;;;;;5.00;1.77;;;8.10;82.00;;;;;;4976438;28;20454;-67
2023/01/12 05:31:50;;;;;;;3.50;2.03;;;8.10;81.50;;;;;;4976312;28;20521;-68
2023/01/12 05:34:18;;;;;;;5.37;2.43;;;8.10;81.90;;;;;;4976360;28;20498;-68
2023/01/12 05:36:45;;;;;;;6.10;2.10;;;8.00;81.60;;;;;;4976367;28;20529;-68
2023/01/12 05:39:11;;;;;;;4.10;1.83;;;8.00;82.10;;;;;;4976291;28;20450;-68
2023/01/12 05:43:48;;;;;;;4.17;1.90;;;8.00;81.90;;;;;;4976190;28;20474;-68
2023/01/12 05:44:25;;;;;;;5.37;2.17;;;8.00;82.20;;;;;;4975747;28;20442;-68
2023/01/12 05:46:52;;;;;;;4.47;1.90;;;8.10;81.70;;;;;;4976116;28;20462;-67
2023/01/12 05:49:19;;;;;;;2.80;1.43;;;8.10;81.50;;;;;;4976132;28;20509;-68
2023/01/12 05:51:45;;;;;;;3.70;1.80;;;7.90;81.70;;;;;;4975689;28;20846;-68
2023/01/12 05:54:12;;;;;;;3.97;1.73;;;7.90;82.00;;;;;;4975684;28;20794;-67
2023/01/12 05:56:38;;;;;;;3.10;1.97;;;7.90;81.90;;;;;;4975662;28;20501;-68
2023/01/12 05:59:05;;;;;;;4.63;1.70;;;8.00;82.30;;;;;;4975917;28;20518;-67
2023/01/12 06:01:33;;;;;;;4.07;1.80;;;8.00;81.80;;;;;;4974408;28;20478;-68
2023/01/12 06:04:01;;;;;;;5.40;1.80;;;8.00;82.30;;;;;;4975832;28;20566;-68
2023/01/12 06:06:30;;;;;;;3.60;1.53;;;8.00;81.90;;;;;;4975696;28;20486;-67
2023/01/12 06:08:57;;;;;;;2.67;1.60;;;8.10;81.70;;;;;;4975766;28;20540;-67
2023/01/12 06:14:10;;;;;;;4.00;2.47;;;8.00;81.70;;;;;;4975721;28;20541;-67
2023/01/12 06:16:39;;;;;;;4.63;1.60;;;7.90;81.80;;;;;;4975249;28;20950;-68
2023/01/12 06:19:07;;;;;;;4.20;2.00;;;7.90;82.10;;;;;;4975231;28;20483;-67
2023/01/12 06:21:34;;;;;;;6.13;1.77;;;7.90;82.20;;;;;;4975421;28;20477;-67
2023/01/12 06:24:01;;;;;;;3.80;1.83;;;7.90;82.20;;;;;;4975121;28;20874;-68
2023/01/12 06:26:28;;;;;;;3.97;1.50;;;8.00;82.10;;;;;;4975338;28;20540;-67
2023/01/12 06:28:54;;;;;;;5.63;2.97;;;7.90;82.00;;;;;;4975055;28;20966;-68
2023/01/12 06:31:21;;;;;;;3.50;1.73;;;7.90;82.20;;;;;;4975182;28;20895;-68
2023/01/12 06:33:49;;;;;;;5.60;1.97;;;7.80;82.30;;;;;;4975007;28;20948;-68
2023/01/12 06:36:16;;;;;;;4.40;1.83;;;7.90;82.30;;;;;;4974939;28;20609;-67
2023/01/12 06:38:42;;;;;;;4.03;1.50;;;7.80;82.40;;;;;;4975150;28;20454;-67
2023/01/12 06:42:27;;;;;;;8.10;2.40;;;7.80;82.30;;;;;;4975064;28;20549;-67
2023/01/12 06:43:59;;;;;;;5.13;1.73;;;7.70;82.50;;;;;;4974623;28;20450;-67
2023/01/12 06:46:26;;;;;;;4.53;1.97;;;7.70;82.90;;;;;;4974979;28;20481;-67
2023/01/12 06:48:56;;;;;;;2.90;1.70;;;7.70;83.10;;;;;;4975002;28;20454;-67
2023/01/12 06:51:23;;;;;;;3.57;1.77;;;7.70;83.10;;;;;;4974998;28;20556;-68
2023/01/12 06:53:51;;;;;;;5.63;1.87;;;7.70;83.30;;;;;;4974664;28;20861;-68
2023/01/12 06:56:17;;;;;;;3.67;1.70;;;7.60;83.40;;;;;;4974889;28;20450;-68
2023/01/12 06:58:45;;;;;;;4.17;1.97;;;7.60;83.80;;;;;;4974837;28;20442;-68
2023/01/12 07:01:12;;;;;;;3.30;1.50;;;7.60;84.10;;;;;;4974445;28;20544;-68
2023/01/12 07:03:39;;;;;;;6.30;1.77;;;7.80;83.90;;;;;;4974815;28;20455;-68
2023/01/12 07:06:07;;;;;;;3.40;1.53;;;7.70;83.00;;;;;;4974851;28;20505;-67
2023/01/12 07:08:35;;;;;;;3.37;1.63;;;7.70;83.40;;;;;;4974685;28;20666;-67
2023/01/12 07:11:03;;;;;;;6.57;1.90;;;7.70;83.60;;;;;;4974316;28;20898;-67
2023/01/12 07:13:30;;;;;;;4.23;1.93;;;7.70;83.30;;;;;;4974358;28;20542;-67
2023/01/12 07:15:58;;;;;;;3.97;1.30;;;7.80;82.90;;;;;;4974645;28;20504;-67
2023/01/12 07:18:25;;;;;;;2.63;1.50;;;7.80;82.60;;;;;;4974712;28;20563;-67
2023/01/12 07:20:52;;;;;;;3.57;1.83;;;7.80;82.20;;;;;;4974519;28;20473;-67
2023/01/12 07:23:21;;;;;;;2.90;1.40;;;7.70;81.80;;;;;;4974558;28;20454;-67
2023/01/12 07:25:47;;;;;;;3.60;1.60;;;7.80;82.00;;;;;;4974511;28;20457;-67
2023/01/12 07:28:14;;;;;;;2.57;1.47;;;7.90;81.50;;;;;;4974422;28;20482;-67
2023/01/12 07:30:42;;;;;;;4.60;2.40;;;7.90;81.70;;;;;;4974325;28;20470;-67
2023/01/12 07:33:10;;;;;;;3.70;1.40;;;7.90;81.70;;;;;;4974069;28;20991;-67
2023/01/12 07:35:37;;;;;;;5.10;1.90;;;8.00;81.40;;;;;;4974428;28;20921;-67
2023/01/12 07:38:04;;;;;;;4.00;1.67;;;7.90;81.50;;;;;;4974410;28;20455;-67
2023/01/12 07:40:33;;;;;;;3.17;1.43;;;7.90;81.20;;;;;;4974232;28;20457;-67
2023/01/12 07:43:00;;;;;;;2.50;1.43;;;7.90;81.20;;;;;;4974374;28;20528;-67
2023/01/12 07:45:26;;;;;;;6.53;1.83;;;8.00;81.00;;;;;;4974295;28;20513;-67
2023/01/12 07:47:53;;;;;;;5.33;1.63;;;8.00;80.70;;;;;;4974267;28;20482;-67
2023/01/12 07:50:21;;;;;;;3.80;1.37;;;8.00;81.00;;;;;;4974343;28;20454;-67
2023/01/12 07:52:47;;;;;;;5.80;1.67;;;7.90;80.90;;;;;;4974274;28;20458;-67
2023/01/12 07:55:15;;;;;;;3.30;1.27;;;8.00;81.00;;;;;;4974259;28;20471;-67
2023/01/12 07:57:43;;;;;;;2.57;1.40;;;8.00;80.60;;;;;;4974251;28;20446;-67
2023/01/12 08:00:12;;;;;;;2.60;1.37;;;8.00;80.80;;;;;;4974222;28;20458;-67
2023/01/12 08:02:38;;;;;;;2.60;1.50;;;8.00;81.00;;;;;;4973863;28;20484;-67
2023/01/12 08:05:05;;;;;;;2.40;1.40;;;8.10;80.50;;;;;;4974194;28;20508;-67
2023/01/12 08:07:32;;;;;;;4.63;1.97;;;8.10;80.80;;;;;;4974060;28;20478;-67
2023/01/12 08:09:59;;;;;;;4.17;1.90;;;8.20;80.60;;;;;;4974083;28;20450;-67
2023/01/12 08:12:29;;;;;;;3.50;1.80;;;8.10;80.60;;;;;;4973804;28;20999;-67
2023/01/12 08:14:57;;;;;;;3.20;1.47;;;8.10;80.30;;;;;;4974094;28;20529;-67
2023/01/12 08:17:24;;;;;;;3.30;1.50;;;8.10;80.50;;;;;;4974070;28;20450;-67
2023/01/12 08:19:54;;;;;;;3.37;1.60;;;8.10;80.60;;;;;;4974283;28;20509;-67
2023/01/12 08:22:26;;;;;;;2.83;1.40;;;8.10;80.60;;;;;;4974076;28;20470;-67
2023/01/12 08:24:58;;;;;;;4.33;1.40;;;8.20;80.80;;;;;;4974632;28;20493;-67
2023/01/12 08:27:28;;;;;;;3.20;1.13;;;8.20;80.50;;;;;;4977540;28;20525;-67
2023/01/12 08:29:58;;;;;;;3.10;1.60;;;8.10;80.80;;;;;;4977548;28;20930;-67
2023/01/12 08:32:27;;;;;;;4.80;1.50;;;8.00;80.60;;;;;;4977440;28;20474;-67
2023/01/12 08:34:56;;;;;;;1.70;1.00;;;8.00;80.90;;;;;;4977384;28;20450;-67
2023/01/12 08:37:24;;;;;;;2.73;1.20;;;8.00;81.20;;;;;;4977392;28;20501;-67
2023/01/12 08:39:52;;;;;;;3.20;1.83;;;8.00;80.80;;;;;;4977328;28;20590;-67
2023/01/12 08:42:19;;;;;;;2.80;1.57;;;8.10;81.40;;;;;;4977209;28;20492;-67
2023/01/12 08:44:46;;;;;;;3.20;1.30;;;8.20;81.10;;;;;;4977293;28;20456;-67
2023/01/12 08:47:19;;;;;;;5.13;1.50;;;8.20;80.80;;;;;;4977119;28;20535;-67
2023/01/12 08:49:46;;;;;;;3.83;1.80;;;8.20;80.50;;;;;;4977209;28;20497;-67
2023/01/12 08:52:13;;;;;;;2.10;1.40;;;8.30;80.90;;;;;;4977041;28;20472;-67
2023/01/12 08:54:40;;;;;;;3.27;2.47;;;8.30;80.80;;;;;;4977107;28;20571;-67
2023/01/12 08:57:07;;;;;;;1.93;1.13;;;8.30;80.80;;;;;;4977029;28;20501;-67
2023/01/12 08:59:33;;;;;;;2.97;1.30;;;8.20;80.50;;;;;;4976970;28;20450;-67
2023/01/12 09:02:00;;;;;;;4.50;1.77;;;8.10;80.70;;;;;;4976582;28;20481;-67
2023/01/12 09:04:28;;;;;;;3.23;1.40;;;8.10;81.30;;;;;;4976586;28;20971;-67
2023/01/12 09:06:55;;;;;;;2.80;1.60;;;8.20;81.10;;;;;;4976478;28;20943;-67
2023/01/12 09:09:22;;;;;;;3.23;1.33;;;8.20;80.80;;;;;;4976783;28;20450;-67
2023/01/12 09:11:50;;;;;;;4.03;1.63;;;8.20;80.90;;;;;;4976696;28;20541;-67
2023/01/12 09:14:18;;;;;;;5.17;1.77;;;8.30;80.80;;;;;;4976455;28;20488;-67
2023/01/12 09:16:44;;;;;;;2.67;1.47;;;8.40;80.70;;;;;;4976418;28;20936;-67
2023/01/12 09:19:11;;;;;;;2.20;1.23;;;8.40;80.40;;;;;;4976647;28;20874;-67
2023/01/12 09:21:41;;;;;;;4.07;1.40;;;8.50;80.50;;;;;;4976473;28;20473;-67
2023/01/12 09:24:09;;;;;;;5.57;1.73;;;8.50;80.20;;;;;;4976311;28;20810;-67
2023/01/12 09:26:38;;;;;;;3.80;1.57;;;8.50;80.70;;;;;;4976579;28;20520;-67
2023/01/12 09:29:04;;;;;;;4.83;2.27;;;8.50;80.50;;;;;;4976427;28;20488;-67
2023/01/12 09:31:32;;;;;;;2.60;1.37;;;8.60;80.90;;;;;;4976037;28;20467;-67
2023/01/12 09:34:00;;;;;;;2.43;1.00;;;8.60;80.60;;;;;;4976358;28;20474;-68
2023/01/12 09:36:29;;;;;;;5.10;3.00;;;8.60;80.20;;;;;;4976124;28;20450;-67
2023/01/12 09:38:57;;;;;;;4.03;1.40;;;8.70;80.40;;;;;;4976303;28;20448;-67
2023/01/12 09:47:04;;;;;;;2.97;1.67;;;8.70;80.30;;;;;;4975982;28;20943;-67
2023/01/12 09:49:35;;;;;;;3.20;1.30;;;8.70;80.60;;;;;;4976053;28;20450;-67
2023/01/12 09:52:12;;;;;;;3.57;1.30;;;8.80;80.10;;;;;;4975691;28;20894;-67
2023/01/12 09:54:40;;;;;;;3.10;1.27;;;8.90;80.30;;;;;;4976010;28;20854;-67
2023/01/12 09:57:20;;;;;;;2.90;1.40;;;8.90;80.40;;;;;;4975934;28;20458;-67
2023/01/12 09:59:52;;;;;;;3.27;1.30;;;8.90;80.20;;;;;;4975916;28;20434;-67
2023/01/12 10:02:19;;;;;;;3.97;1.57;;;8.80;80.40;;;;;;4975328;28;20653;-67
2023/01/12 10:04:47;;;;;;;6.60;1.40;;;8.80;80.00;;;;;;4975811;28;20497;-67
2023/01/12 10:07:17;;;;;;;2.23;1.23;;;8.90;80.20;;;;;;4975689;28;20511;-67
2023/01/12 10:09:46;;;;;;;6.20;1.60;;;8.90;79.80;;;;;;4975351;28;20504;-67
2023/01/12 10:12:21;;;;;;;4.63;2.10;;;8.80;80.80;;;;;;4975542;28;20470;-66
2023/01/12 10:15:02;;;;;;;2.97;1.23;;;8.90;80.30;;;;;;4976333;28;20434;-66
2023/01/12 10:17:35;;;;;;;4.03;1.30;;;8.90;80.20;;;;;;4975551;28;20504;-67
2023/01/12 10:20:11;;;;;;;3.13;1.30;;;8.80;80.90;;;;;;4975533;28;20494;-67
2023/01/12 10:22:43;;;;;;;2.80;1.40;;;8.80;80.70;;;;;;4975413;28;20532;-67
2023/01/12 10:25:19;;;;;;;2.13;1.13;;;8.90;80.20;;;;;;4975140;28;20849;-67
2023/01/12 10:27:48;;;;;;;3.17;1.07;;;8.90;80.10;;;;;;4975334;28;20474;-67
2023/01/12 10:30:17;;;;;;;2.60;1.10;;;8.80;80.10;;;;;;4975284;28;20457;-67
2023/01/12 10:32:44;;;;;;;2.83;1.20;;;8.80;80.70;;;;;;4975724;28;20570;-67
2023/01/12 10:35:16;;;;;;;3.77;1.57;;;8.90;80.10;;;;;;4975250;28;20454;-67
2023/01/12 10:37:47;;;;;;;3.33;1.30;;;8.90;80.20;;;;;;4974921;28;20853;-66
2023/01/12 10:40:25;;;;;;;2.40;1.13;;;8.90;80.20;;;;;;4975183;28;20788;-65
2023/01/12 10:45:41;;;;;;;3.20;1.00;;;8.90;79.80;;;;;;4974975;28;20498;-67
2023/01/12 10:48:19;;;;;;;2.50;1.10;;;9.00;79.80;;;;;;4974329;28;20577;-66
2023/01/12 10:50:57;;;;;;;3.50;1.50;;;9.20;79.60;;;;;;4974637;28;20984;-66
2023/01/12 10:53:29;;;;;;;2.03;1.10;;;9.20;79.00;;;;;;4974675;28;20995;-67
2023/01/12 10:56:00;;;;;;;1.93;1.03;;;9.40;79.30;;;;;;4974928;28;20485;-66
2023/01/12 10:58:31;;;;;;;2.60;0.90;;;9.30;78.60;;;;;;4974954;28;20529;-67
2023/01/12 11:00:58;;;;;;;3.60;1.10;;;9.40;78.20;;;;;;4974731;28;20486;-67
2023/01/12 11:03:31;;;;;;;3.50;1.10;;;9.40;77.90;;;;;;4974817;28;20489;-66
2023/01/12 11:06:25;;;;;;;3.00;1.00;;;9.30;78.10;;;;;;4974773;28;20435;-66
2023/01/12 11:08:51;;;;;;;2.37;0.90;;;9.30;78.50;;;;;;4974671;28;20573;-64
2023/01/12 11:11:31;;;;;;;2.30;1.00;;;9.40;78.60;;;;;;4974733;28;20470;-66
2023/01/12 11:14:00;;;;;;;1.90;1.13;;;9.50;78.60;;;;;;4974713;28;20435;-66
2023/01/12 11:16:32;;;;;;;3.17;1.40;;;9.50;78.00;;;;;;4974268;28;20867;-66
2023/01/12 11:19:15;;;;;;;1.83;1.03;;;9.60;77.50;;;;;;4974587;28;20431;-65
2023/01/12 11:21:45;;;;;;;3.80;1.20;;;9.50;77.70;;;;;;4974170;28;20901;-66
2023/01/12 11:24:22;;;;;;;1.83;0.80;;;9.50;77.70;;;;;;4974519;28;20450;-66
2023/01/12 11:26:55;;;;;;;2.17;0.90;;;9.40;78.20;;;;;;4974621;28;20442;-66
2023/01/12 11:29:41;;;;;;;2.23;0.90;;;9.30;78.10;;;;;;4974476;28;20470;-66
2023/01/12 11:32:14;;;;;;;2.43;0.83;;;9.40;78.70;;;;;;4974121;28;20986;-67
2023/01/12 11:34:53;;;;;;;1.47;0.77;;;9.40;78.60;;;;;;4974470;28;20493;-67
2023/01/12 11:37:20;;;;;;;1.70;0.80;;;9.40;78.50;;;;;;4974332;28;20430;-66
2023/01/12 11:39:52;;;;;;;1.70;0.80;;;9.40;78.60;;;;;;4974296;28;20450;-66
2023/01/12 11:45:13;;;;;;;1.60;0.87;;;9.30;79.00;;;;;;4974484;28;20885;-67
2023/01/12 11:47:44;;;;;;;2.03;0.90;;;9.30;79.00;;;;;;4974292;28;20497;-66
2023/01/12 11:50:16;;;;;;;2.23;0.90;;;9.40;79.20;;;;;;4974056;28;20908;-66
2023/01/12 11:52:43;;;;;;;3.40;1.10;;;9.50;78.90;;;;;;4974334;28;20466;-67
2023/01/12 11:55:14;;;;;;;2.07;1.03;;;9.50;78.80;;;;;;4974264;28;20458;-66
2023/01/12 11:58:02;;;;;;;1.50;0.70;;;9.50;78.90;;;;;;4974378;28;20512;-67
2023/01/12 12:00:49;;;;;;;1.83;0.90;;;9.50;78.90;;;;;;4977336;28;20453;-66
2023/01/12 12:03:46;;;;;;;2.10;0.90;;;9.40;79.50;;;;;;4978869;28;20450;-67
2023/01/12 12:06:36;;;;;;;2.60;0.83;;;9.40;79.40;;;;;;4965865;28;20465;-66
2023/01/12 12:09:18;;;;;;;2.83;0.93;;;9.40;79.50;;;;;;4979382;28;20474;-68
2023/01/12 12:11:53;;;;;;;2.47;0.90;;;9.50;79.20;;;;;;4979249;28;20462;-67
2023/01/12 12:14:41;;;;;;;2.63;0.90;;;9.40;79.20;;;;;;4978941;28;20437;-66
2023/01/12 12:17:12;;;;;;;1.50;0.70;;;9.50;79.40;;;;;;4978788;28;20435;-67
2023/01/12 12:19:47;;;;;;;1.43;0.70;;;9.50;79.00;;;;;;4979036;28;20439;-68
2023/01/12 12:22:26;;;;;;;1.60;0.90;;;9.50;79.40;;;;;;4978563;28;20470;-68
2023/01/12 12:25:16;;;;;;;2.27;0.90;;;9.50;79.20;;;;;;4978236;28;20437;-67
2023/01/12 12:27:55;;;;;;;1.50;0.80;;;9.60;79.00;;;;;;4961901;28;20820;-68
2023/01/12 12:30:54;;;;;;;1.60;0.70;;;9.60;79.20;;;;;;4978205;28;20433;-69
2023/01/12 12:33:32;;;;;;;2.17;0.97;;;9.70;79.20;;;;;;4978571;28;20450;-68
2023/01/12 12:36:09;;;;;;;1.70;0.97;;;9.70;79.10;;;;;;4977479;28;20430;-67
2023/01/12 12:39:04;;;;;;;1.53;0.80;;;9.50;78.90;;;;;;4977423;28;20422;-67
2023/01/12 12:47:49;;;;;;;1.70;0.87;;;9.60;79.10;;;;;;4977107;28;20793;-67
2023/01/12 12:50:22;;;;;;;2.10;0.90;;;9.70;79.00;;;;;;4963969;28;20556;-67
2023/01/12 12:53:02;;;;;;;2.03;0.73;;;9.90;79.00;;;;;;4977186;28;20485;-67
2023/01/12 12:55:29;;;;;;;1.60;0.70;;;10.00;78.70;;;;;;4977128;28;20430;-67
2023/01/12 12:58:00;;;;;;;2.20;0.90;;;9.90;79.10;;;;;;4977025;28;20505;-67
2023/01/12 13:00:39;;;;;;;1.70;0.97;;;10.00;78.50;;;;;;4976867;28;20482;-67
2023/01/12 13:03:07;;;;;;;2.07;0.80;;;10.10;78.40;;;;;;4977053;28;20522;-69
2023/01/12 13:05:43;;;;;;;2.07;0.80;;;10.10;77.80;;;;;;4976603;28;21022;-67
2023/01/12 13:08:22;;;;;;;1.90;0.80;;;10.10;78.00;;;;;;4976850;28;20473;-67
2023/01/12 13:10:51;;;;;;;2.07;0.90;;;10.00;78.70;;;;;;4976176;28;20580;-67
2023/01/12 13:13:27;;;;;;;2.33;0.80;;;9.90;78.90;;;;;;4976779;28;20453;-67
2023/01/12 13:16:42;;;;;;;1.80;0.70;;;9.90;79.10;;;;;;4976719;28;20457;-67
2023/01/12 13:19:15;;;;;;;2.73;1.20;;;9.80;79.50;;;;;;4976467;28;20808;-68
2023/01/12 13:21:57;;;;;;;2.07;0.77;;;9.80;79.90;;;;;;4976629;28;20554;-68
2023/01/12 13:24:27;;;;;;;1.73;0.80;;;9.70;80.10;;;;;;4976629;28;20472;-68
2023/01/12 13:26:56;;;;;;;1.50;0.63;;;9.70;80.20;;;;;;4976583;28;20505;-68
2023/01/12 13:29:39;;;;;;;1.80;0.80;;;9.70;80.20;;;;;;4976462;28;20901;-67
2023/01/12 13:32:31;;;;;;;3.43;0.87;;;9.80;80.10;;;;;;4976010;28;20835;-66
2023/01/12 13:34:59;;;;;;;2.10;0.90;;;9.90;80.00;;;;;;4976022;28;20884;-67
2023/01/12 13:37:34;;;;;;;2.00;0.83;;;9.80;80.50;;;;;;4976322;28;20454;-66
2023/01/12 13:40:10;;;;;;;2.00;0.90;;;9.90;80.50;;;;;;4976225;28;20485;-67
2023/01/12 13:45:24;;;;;;;1.80;0.97;;;9.80;80.80;;;;;;4950774;28;20446;-68
2023/01/12 13:47:53;;;;;;;2.10;1.10;;;9.70;81.20;;;;;;4976863;28;20450;-66
2023/01/12 13:50:23;;;;;;;1.80;0.83;;;9.70;81.10;;;;;;4976611;28;20492;-66
2023/01/12 13:52:57;;;;;;;1.90;0.97;;;9.60;81.70;;;;;;4976559;28;20442;-67
2023/01/12 13:55:26;;;;;;;1.80;0.80;;;9.50;81.70;;;;;;4976608;28;20466;-67
2023/01/12 13:57:58;;;;;;;1.50;0.70;;;9.60;81.60;;;;;;4976472;28;20473;-67
2023/01/12 14:00:26;;;;;;;2.07;0.80;;;9.50;81.90;;;;;;4976213;28;20454;-67
2023/01/12 14:02:54;;;;;;;4.40;1.03;;;9.50;81.90;;;;;;4975880;28;20497;-67
2023/01/12 14:05:53;;;;;;;2.00;0.80;;;9.50;81.90;;;;;;4976206;28;20454;-66
2023/01/12 14:08:44;;;;;;;2.00;0.80;;;9.70;81.90;;;;;;4975992;28;20446;-72
2023/01/12 14:11:35;;;;;;;1.97;0.70;;;9.70;81.60;;;;;;4975807;28;20481;-66
2023/01/12 14:19:56;;;;;;;1.60;0.70;;;9.80;81.50;;;;;;4975680;28;20406;-69
2023/01/12 14:22:24;;;;;;;1.80;0.70;;;9.80;80.80;;;;;;4974977;28;21032;-68
2023/01/12 14:24:51;;;;;;;1.70;0.80;;;9.70;81.30;;;;;;4975949;28;20477;-70
2023/01/12 14:27:22;;;;;;;2.80;0.80;;;9.70;81.50;;;;;;4975977;28;20453;-67
2023/01/12 14:29:50;;;;;;;1.80;0.80;;;9.60;81.80;;;;;;4975911;28;20482;-67
2023/01/12 14:32:20;;;;;;;2.20;0.80;;;9.60;82.00;;;;;;4975943;28;20470;-66
2023/01/12 14:34:51;;;;;;;1.90;0.90;;;9.60;82.10;;;;;;4975769;28;20461;-67
2023/01/12 14:37:29;;;;;;;1.50;0.70;;;9.60;82.00;;;;;;4975763;28;20470;-67
2023/01/12 14:39:56;;;;;;;2.00;0.87;;;9.70;81.70;;;;;;4975244;28;20435;-67
2023/01/12 14:48:24;;;;;;;1.60;0.70;;;9.60;82.00;;;;;;4975388;28;21035;-66
2023/01/12 14:51:02;;;;;;;4.30;0.90;;;9.70;81.70;;;;;;4975838;28;20488;-67
2023/01/12 14:53:35;;;;;;;1.70;0.80;;;9.70;81.50;;;;;;4974740;28;20469;-66
2023/01/12 14:56:18;;;;;;;1.70;0.80;;;9.70;81.60;;;;;;4974594;28;20901;-66
2023/01/12 14:58:46;;;;;;;1.80;0.80;;;9.70;81.60;;;;;;4974923;28;20525;-66
2023/01/12 15:01:26;;;;;;;1.60;0.70;;;9.70;81.30;;;;;;4974506;28;20482;-67
2023/01/12 15:03:53;;;;;;;2.37;1.17;;;9.60;81.60;;;;;;4974790;28;20453;-67
2023/01/12 15:06:20;;;;;;;1.60;0.80;;;9.70;81.80;;;;;;4974740;28;20820;-67
2023/01/12 15:08:57;;;;;;;1.50;0.70;;;9.70;81.50;;;;;;4974634;28;20450;-67
2023/01/12 15:11:34;;;;;;;2.03;0.97;;;9.70;81.30;;;;;;4974577;28;20469;-66
2023/01/12 15:14:02;;;;;;;3.83;0.90;;;9.60;81.90;;;;;;4974720;28;20533;-67
2023/01/12 15:27:29;;;;;;;1.70;0.70;;;9.60;82.40;;;;;;4974507;28;20470;-67
2023/01/12 15:29:55;;;;;;;1.53;0.80;;;9.50;82.30;;;;;;4974380;28;20490;-67
2023/01/12 15:32:28;;;;;;;1.87;0.80;;;9.50;82.50;;;;;;4974305;28;20482;-67
2023/01/12 15:34:54;;;;;;;2.80;0.93;;;9.50;82.50;;;;;;4973883;28;20912;-67
2023/01/12 15:37:21;;;;;;;2.00;1.20;;;9.60;82.40;;;;;;4973941;28;20971;-67
2023/01/12 15:39:49;;;;;;;1.70;0.90;;;9.60;82.50;;;;;;4974402;28;20810;-67
2023/01/12 15:42:20;;;;;;;1.90;0.80;;;9.60;82.40;;;;;;4973988;28;20893;-67
2023/01/12 15:44:49;;;;;;;1.80;1.00;;;9.50;82.50;;;;;;4974387;28;20466;-67
2023/01/12 15:47:17;;;;;;;3.03;1.10;;;9.60;82.60;;;;;;4974299;28;20450;-67
2023/01/12 15:49:45;;;;;;;2.43;1.30;;;9.40;82.80;;;;;;4974136;28;20481;-67
2023/01/12 15:52:13;;;;;;;2.87;1.07;;;9.50;82.80;;;;;;4974162;28;20477;-67
2023/01/12 15:54:40;;;;;;;2.70;0.90;;;9.50;82.60;;;;;;4974214;28;20457;-67
2023/01/12 15:57:11;;;;;;;2.00;1.00;;;9.40;83.00;;;;;;4974209;28;20446;-67
2023/01/12 15:59:37;;;;;;;2.10;0.90;;;9.30;83.20;;;;;;4974268;28;20431;-67
2023/01/12 16:02:12;;;;;;;1.60;0.80;;;9.20;83.50;;;;;;4973764;28;20489;-67
2023/01/12 16:04:39;;;;;;;4.60;1.30;;;9.20;83.60;;;;;;4974256;28;20492;-67
2023/01/12 16:07:05;;;;;;;2.67;1.10;;;9.20;83.80;;;;;;4974156;28;20446;-68
2023/01/12 16:09:32;;;;;;;1.50;0.80;;;9.30;83.30;;;;;;4974044;28;20489;-67
2023/01/12 16:11:58;;;;;;;2.30;1.10;;;9.40;83.10;;;;;;4974042;28;20466;-68
2023/01/12 16:14:26;;;;;;;1.60;0.93;;;9.50;82.40;;;;;;4974642;28;20454;-67
2023/01/12 16:16:53;;;;;;;2.37;0.80;;;9.50;82.40;;;;;;4974030;28;20496;-67
2023/01/12 16:19:22;;;;;;;2.73;1.00;;;9.40;82.90;;;;;;4974044;28;20442;-67
2023/01/12 16:21:49;;;;;;;2.20;1.50;;;9.40;83.00;;;;;;4973955;28;20474;-67
2023/01/12 16:24:15;;;;;;;1.87;1.03;;;9.40;82.80;;;;;;4973658;28;20969;-67
2023/01/12 16:26:42;;;;;;;2.37;1.07;;;9.40;82.70;;;;;;4973947;28;20481;-67
2023/01/12 16:29:09;;;;;;;2.30;1.10;;;9.40;82.70;;;;;;4973921;28;20545;-67
2023/01/12 16:31:37;;;;;;;3.87;1.00;;;9.30;82.80;;;;;;4973871;28;20466;-67
2023/01/12 16:34:03;;;;;;;2.03;1.37;;;9.30;82.70;;;;;;4973931;28;20442;-67
2023/01/12 16:36:31;;;;;;;2.63;1.30;;;9.20;83.00;;;;;;4973911;28;20457;-67
2023/01/12 16:38:58;;;;;;;1.90;1.17;;;9.20;83.30;;;;;;4973848;28;20473;-67
2023/01/12 16:41:24;;;;;;;2.20;1.47;;;9.10;83.20;;;;;;4973886;28;20470;-66
2023/01/12 16:43:51;;;;;;;2.90;1.13;;;9.20;83.10;;;;;;4973890;28;20454;-67
2023/01/12 16:46:18;;;;;;;3.73;1.10;;;9.20;83.20;;;;;;4975091;28;20446;-67
2023/01/12 16:48:45;;;;;;;1.67;1.00;;;9.20;83.00;;;;;;4977586;28;20807;-67
2023/01/12 16:51:13;;;;;;;2.03;0.80;;;9.20;83.10;;;;;;4977248;28;20494;-67
2023/01/12 16:53:41;;;;;;;2.30;1.10;;;9.20;83.00;;;;;;4977210;28;20533;-67
2023/01/12 16:56:10;;;;;;;2.20;1.47;;;9.20;83.20;;;;;;4977172;28;20545;-68
2023/01/12 16:58:36;;;;;;;3.00;1.00;;;9.20;82.90;;;;;;4977210;28;20454;-67
2023/01/12 17:01:10;;;;;;;2.30;1.00;;;9.20;82.90;;;;;;4976754;28;20485;-67
2023/01/12 17:03:37;;;;;;;1.57;0.83;;;9.30;82.80;;;;;;4977080;28;20494;-67
2023/01/12 17:06:09;;;;;;;2.10;1.07;;;9.40;82.60;;;;;;4977020;28;20549;-67
2023/01/12 17:08:36;;;;;;;2.37;1.40;;;9.30;82.10;;;;;;4977019;28;20431;-67
2023/01/12 17:11:07;;;;;;;2.03;1.00;;;9.40;82.10;;;;;;4976787;28;20493;-68
2023/01/12 17:13:34;;;;;;;2.53;0.90;;;9.30;82.30;;;;;;4976762;28;20529;-67
2023/01/12 17:16:01;;;;;;;2.23;1.20;;;9.40;82.30;;;;;;4976848;28;20495;-68
2023/01/12 17:18:27;;;;;;;1.90;0.90;;;9.30;82.30;;;;;;4976727;28;20501;-68
2023/01/12 17:21:00;;;;;;;2.03;1.30;;;9.50;81.80;;;;;;4976855;28;20520;-67
2023/01/12 17:23:28;;;;;;;1.50;0.80;;;9.40;81.70;;;;;;4976743;28;20466;-67
2023/01/12 17:25:55;;;;;;;2.13;1.00;;;9.40;81.50;;;;;;4976236;28;20936;-68
2023/01/12 17:28:22;;;;;;;1.70;0.80;;;9.40;81.20;;;;;;4976582;28;20446;-67
2023/01/12 17:30:48;;;;;;;2.90;1.13;;;9.40;81.20;;;;;;4976026;28;21026;-67
2023/01/12 17:33:15;;;;;;;1.60;0.83;;;9.40;81.30;;;;;;4976488;28;20450;-67
2023/01/12 17:35:42;;;;;;;1.87;0.80;;;9.30;81.30;;;;;;4976486;28;20867;-64
2023/01/12 17:38:08;;;;;;;2.10;0.90;;;9.40;81.50;;;;;;4976051;28;20803;-67
2023/01/12 17:40:38;;;;;;;3.40;1.50;;;9.40;81.60;;;;;;4975965;28;20991;-67
2023/01/12 17:43:05;;;;;;;2.27;0.80;;;9.50;80.90;;;;;;4976291;28;20458;-68
2023/01/12 17:45:32;;;;;;;3.27;1.20;;;9.50;80.50;;;;;;4976205;28;20446;-67
2023/01/12 17:48:00;;;;;;;2.23;1.00;;;9.50;80.40;;;;;;4976149;28;20501;-67
2023/01/12 17:50:27;;;;;;;2.40;1.07;;;9.50;80.80;;;;;;4975967;28;20482;-66
2023/01/12 17:52:53;;;;;;;2.10;1.10;;;9.50;80.50;;;;;;4976125;28;20859;-67
2023/01/12 17:55:20;;;;;;;1.93;1.20;;;9.50;80.40;;;;;;4975761;28;20512;-67
2023/01/12 17:57:48;;;;;;;1.60;0.77;;;9.50;80.50;;;;;;4975889;28;20821;-68
2023/01/12 18:00:16;;;;;;;1.97;0.90;;;9.50;80.30;;;;;;4975927;28;20521;-67
2023/01/12 18:02:43;;;;;;;1.87;1.10;;;9.50;80.20;;;;;;4975523;28;20478;-67
2023/01/12 18:05:10;;;;;;;1.90;0.90;;;9.60;80.00;;;;;;4975847;28;20450;-67